Terminal Aerodrome Forecast
Issued by NWS

Home | Current Version | Previous Version | Text Only | Print | Product List | Glossary On
Versions: 1 2 3 4 5 6 7 8 9 10 11 12 13 14 15 16 17 18 19
000
FTUS45 KTFX 040006 AAA
TAFCTB
TAF AMD
KCTB 040006Z 0400/0424 25009KT P6SM BKN100
     FM041200 25014KT P6SM BKN080
     FM042100 32014KT P6SM BKN035 PROB30 0421/0424 2SM -SN OVC015=

USA.gov is the U.S. government's official web portal to all federal, state and local government web resources and services.